Time;durP1;ratioP1;P1;durP2;ratioP2;P2;SDS_P1;SDS_P2;PMS_P1;PMS_P2;Temp;Humidity;BMP_temperature;BMP_pressure;BME280_temperature;BME280_humidity;BME280_pressure;Samples;Min_cycle;Max_cycle;Signal;HPM_P1;HPM_P2
2023/09/02 00:01:50;;;;;;;8.02;2.72;;;14.60;99.90;;;;;;5089851;28;20040;-72
2023/09/02 00:04:16;;;;;;;8.23;3.20;;;14.70;99.90;;;;;;5089463;28;20118;-72
2023/09/02 00:06:41;;;;;;;4.53;2.90;;;14.60;99.90;;;;;;5090932;28;20024;-72
2023/09/02 00:09:07;;;;;;;7.63;2.85;;;14.60;99.90;;;;;;5091224;28;20039;-72
2023/09/02 00:11:32;;;;;;;5.85;2.83;;;14.60;99.90;;;;;;5090782;28;20039;-73
2023/09/02 00:13:58;;;;;;;8.18;2.58;;;14.70;99.90;;;;;;5089831;28;20806;-71
2023/09/02 00:16:24;;;;;;;9.70;3.05;;;14.60;99.90;;;;;;5069312;28;20469;-72
2023/09/02 00:18:49;;;;;;;5.55;2.80;;;14.60;99.90;;;;;;5090377;28;20032;-72
2023/09/02 00:21:15;;;;;;;7.97;2.95;;;14.60;99.90;;;;;;5091124;28;20070;-72
2023/09/02 00:23:46;;;;;;;6.13;2.95;;;14.50;99.90;;;;;;5088968;28;20481;-72
2023/09/02 00:26:12;;;;;;;4.82;2.78;;;14.50;99.90;;;;;;5089135;28;20958;-72
2023/09/02 00:28:38;;;;;;;7.47;3.10;;;14.50;99.90;;;;;;5089486;28;20099;-72
2023/09/02 00:31:03;;;;;;;7.95;2.67;;;14.40;99.90;;;;;;5082643;28;20036;-72
2023/09/02 00:33:29;;;;;;;4.40;3.45;;;14.40;99.90;;;;;;5087065;28;20042;-72
2023/09/02 00:35:55;;;;;;;6.18;3.50;;;14.40;99.90;;;;;;5088349;28;20040;-71
2023/09/02 00:38:20;;;;;;;11.68;3.05;;;14.40;99.90;;;;;;5091350;28;20028;-72
2023/09/02 00:40:54;;;;;;;9.82;3.30;;;14.30;99.90;;;;;;5090135;28;20035;-72
2023/09/02 00:43:19;;;;;;;6.20;3.17;;;14.30;99.90;;;;;;5091023;28;20035;-72
2023/09/02 00:45:45;;;;;;;6.72;3.20;;;14.30;99.90;;;;;;5089582;28;21101;-71
2023/09/02 00:48:11;;;;;;;7.47;2.83;;;14.20;99.90;;;;;;5088110;28;20067;-71
2023/09/02 00:50:37;;;;;;;84.95;4.18;;;14.20;99.90;;;;;;5088480;28;20028;-72
2023/09/02 00:53:03;;;;;;;41.90;3.08;;;14.10;99.90;;;;;;5089525;28;20036;-72
2023/09/02 00:55:29;;;;;;;6.82;2.30;;;14.20;99.90;;;;;;5089867;28;20032;-72
2023/09/02 00:57:56;;;;;;;5.38;2.30;;;14.10;99.90;;;;;;5084560;28;20036;-72
2023/09/02 01:00:22;;;;;;;6.07;2.30;;;14.00;99.90;;;;;;5088887;28;20036;-72
2023/09/02 01:02:49;;;;;;;4.75;2.38;;;14.00;99.90;;;;;;5084615;28;20472;-72
2023/09/02 01:05:15;;;;;;;8.40;2.70;;;14.00;99.90;;;;;;5090577;28;20078;-72
2023/09/02 01:07:43;;;;;;;6.78;2.42;;;13.90;99.90;;;;;;5088996;28;20039;-72
2023/09/02 01:10:09;;;;;;;5.30;2.55;;;13.90;99.90;;;;;;5087896;28;20536;-72
2023/09/02 01:12:35;;;;;;;5.45;2.75;;;13.90;99.90;;;;;;5086113;28;20035;-71
2023/09/02 01:15:00;;;;;;;5.28;2.97;;;13.90;99.90;;;;;;5087916;28;20424;-71
2023/09/02 01:17:26;;;;;;;4.65;2.67;;;13.90;99.90;;;;;;5090087;28;20055;-72
2023/09/02 01:19:56;;;;;;;5.03;3.20;;;13.80;99.90;;;;;;5090820;28;20043;-72
2023/09/02 01:22:34;;;;;;;11.30;3.20;;;13.90;99.90;;;;;;5088751;28;20102;-72
2023/09/02 01:25:14;;;;;;;9.35;2.97;;;13.80;99.90;;;;;;5090994;28;20035;-72
2023/09/02 01:27:46;;;;;;;7.78;2.97;;;13.80;99.90;;;;;;5089135;28;20035;-73
2023/09/02 01:30:22;;;;;;;7.28;2.78;;;13.80;99.90;;;;;;5089210;28;20115;-71
2023/09/02 01:32:52;;;;;;;41.72;3.00;;;13.90;99.90;;;;;;5089523;28;20032;-72
2023/09/02 01:35:25;;;;;;;119.60;3.53;;;13.80;99.90;;;;;;5088902;28;20032;-72
2023/09/02 01:37:55;;;;;;;57.60;4.45;;;13.70;99.90;;;;;;5090632;28;20047;-72
2023/09/02 01:40:25;;;;;;;42.63;3.28;;;13.70;99.90;;;;;;5073028;28;20077;-72
2023/09/02 01:42:51;;;;;;;4.90;2.70;;;13.70;99.90;;;;;;5088441;28;20075;-72
2023/09/02 01:45:19;;;;;;;6.07;2.58;;;13.70;99.90;;;;;;5089333;28;20035;-72
2023/09/02 01:47:46;;;;;;;7.32;2.47;;;13.60;99.90;;;;;;5087544;28;20515;-73
2023/09/02 01:50:15;;;;;;;6.72;2.50;;;13.60;99.90;;;;;;5090414;28;20039;-72
2023/09/02 01:52:42;;;;;;;6.60;2.30;;;13.60;99.90;;;;;;5089994;28;20039;-72
2023/09/02 01:55:08;;;;;;;6.38;2.60;;;13.50;99.90;;;;;;5088756;28;20032;-72
2023/09/02 01:57:34;;;;;;;4.50;2.28;;;13.50;99.90;;;;;;5089702;28;21240;-72
2023/09/02 02:00:00;;;;;;;60.30;3.30;;;13.60;99.90;;;;;;5089091;28;20024;-72
2023/09/02 02:02:25;;;;;;;4.18;2.30;;;13.60;99.90;;;;;;5087780;28;20047;-72
2023/09/02 02:04:55;;;;;;;4.65;2.45;;;13.60;99.90;;;;;;5089014;28;20032;-72
2023/09/02 02:07:25;;;;;;;7.63;2.92;;;13.50;99.90;;;;;;5089411;28;20036;-72
2023/09/02 02:09:56;;;;;;;4.53;2.70;;;13.50;99.90;;;;;;5070960;28;20396;-72
2023/09/02 02:12:22;;;;;;;7.78;2.83;;;13.50;99.90;;;;;;5087894;28;20024;-72
2023/09/02 02:14:48;;;;;;;6.78;2.63;;;13.60;99.90;;;;;;5069055;28;20048;-72
2023/09/02 02:17:14;;;;;;;8.40;2.88;;;13.60;99.90;;;;;;5088740;28;20523;-72
2023/09/02 02:19:42;;;;;;;235.30;5.53;;;13.60;99.90;;;;;;5087987;28;20150;-72
2023/09/02 02:22:08;;;;;;;2.67;1.92;;;13.40;99.90;;;;;;5087047;28;20028;-72
2023/09/02 02:24:34;;;;;;;5.07;1.80;;;13.30;99.90;;;;;;5088381;28;20044;-72
2023/09/02 02:26:59;;;;;;;2.80;1.80;;;13.10;99.90;;;;;;5087003;28;20024;-72
2023/09/02 02:29:25;;;;;;;4.43;1.70;;;13.10;99.90;;;;;;5086463;28;20055;-72
2023/09/02 02:31:50;;;;;;;7.07;1.90;;;13.10;99.90;;;;;;5086745;28;20477;-72
2023/09/02 02:34:16;;;;;;;5.15;2.00;;;13.10;99.90;;;;;;5086745;28;20114;-72
2023/09/02 02:36:42;;;;;;;14.25;2.47;;;13.10;99.90;;;;;;5088555;28;20046;-72
2023/09/02 02:39:07;;;;;;;4.85;2.13;;;13.10;99.90;;;;;;5068389;28;20397;-72
2023/09/02 02:41:33;;;;;;;17.73;2.63;;;13.10;99.90;;;;;;5087957;28;20024;-72
2023/09/02 02:43:59;;;;;;;23.42;2.78;;;13.10;99.90;;;;;;5085862;28;20036;-72
2023/09/02 02:46:25;;;;;;;63.00;3.30;;;13.20;99.90;;;;;;5087940;28;20032;-71
2023/09/02 02:48:51;;;;;;;38.20;2.38;;;13.20;99.90;;;;;;5087488;28;20047;-72
2023/09/02 02:51:18;;;;;;;5.95;2.00;;;13.20;99.90;;;;;;5085347;28;20058;-72
2023/09/02 02:53:44;;;;;;;4.75;2.00;;;13.10;99.90;;;;;;5088027;28;20032;-73
2023/09/02 02:56:11;;;;;;;3.60;1.77;;;13.00;99.90;;;;;;5085385;28;20488;-72
2023/09/02 02:58:37;;;;;;;3.67;2.13;;;13.10;99.90;;;;;;5084302;28;20036;-72
2023/09/02 03:01:04;;;;;;;6.38;1.90;;;13.00;99.90;;;;;;5084606;28;20096;-72
2023/09/02 03:03:30;;;;;;;2.83;1.85;;;13.00;99.90;;;;;;5088331;28;20050;-72
2023/09/02 03:05:57;;;;;;;3.70;2.00;;;13.00;99.90;;;;;;5078431;28;20529;-72
2023/09/02 03:08:23;;;;;;;9.55;2.00;;;13.10;99.90;;;;;;5087531;28;20054;-71
2023/09/02 03:10:58;;;;;;;3.95;1.77;;;13.00;99.90;;;;;;5086096;28;20032;-73
2023/09/02 03:13:24;;;;;;;4.95;1.80;;;13.00;99.90;;;;;;5087717;28;20541;-71
2023/09/02 03:15:50;;;;;;;5.15;1.80;;;13.00;99.90;;;;;;5086059;28;20044;-73
2023/09/02 03:18:16;;;;;;;57.13;2.75;;;13.00;99.90;;;;;;5088000;28;20039;-71
2023/09/02 03:20:42;;;;;;;158.23;3.75;;;13.00;99.90;;;;;;5070335;28;20024;-72
2023/09/02 03:23:08;;;;;;;3.60;1.60;;;13.00;99.90;;;;;;5086321;28;20475;-72
2023/09/02 03:25:34;;;;;;;2.90;1.52;;;12.90;99.90;;;;;;5088845;28;20036;-72
2023/09/02 03:28:00;;;;;;;5.63;1.98;;;12.90;99.90;;;;;;5086341;28;20035;-71
2023/09/02 03:30:26;;;;;;;2.78;1.98;;;12.80;99.90;;;;;;5086790;28;20036;-71
2023/09/02 03:32:51;;;;;;;4.68;1.63;;;12.90;99.90;;;;;;5087766;28;20067;-72
2023/09/02 03:35:17;;;;;;;2.58;1.50;;;12.80;99.90;;;;;;5088521;28;20093;-71
2023/09/02 03:37:43;;;;;;;4.32;1.88;;;12.80;99.90;;;;;;5087764;28;20062;-72
2023/09/02 03:40:08;;;;;;;6.43;2.20;;;12.90;99.90;;;;;;5087011;28;20102;-73
2023/09/02 03:42:34;;;;;;;2.72;1.73;;;12.90;99.90;;;;;;5086389;28;20059;-72
2023/09/02 03:45:00;;;;;;;5.53;1.77;;;12.90;99.90;;;;;;5086776;28;20035;-72
2023/09/02 03:47:30;;;;;;;10.52;1.60;;;12.80;99.90;;;;;;5085865;28;20081;-72
2023/09/02 03:49:56;;;;;;;3.03;1.60;;;12.80;99.90;;;;;;5084014;28;20032;-72
2023/09/02 03:52:22;;;;;;;4.55;1.67;;;12.70;99.90;;;;;;5086558;28;20111;-72
2023/09/02 03:54:48;;;;;;;6.78;1.85;;;12.60;99.90;;;;;;5086260;28;20025;-72
2023/09/02 03:57:13;;;;;;;3.67;1.58;;;12.50;99.90;;;;;;5084859;28;20119;-71
2023/09/02 03:59:39;;;;;;;3.53;1.63;;;12.50;99.90;;;;;;5087711;28;20024;-71
2023/09/02 04:02:04;;;;;;;3.38;1.60;;;12.50;99.90;;;;;;5086495;28;20052;-71
2023/09/02 04:04:30;;;;;;;5.05;1.70;;;12.60;99.90;;;;;;5084950;28;20031;-71
2023/09/02 04:06:56;;;;;;;7.82;1.90;;;12.60;99.90;;;;;;5086541;28;20040;-71
2023/09/02 04:09:22;;;;;;;4.90;1.90;;;12.60;99.90;;;;;;5087143;28;20095;-71
2023/09/02 04:11:47;;;;;;;4.88;2.00;;;12.60;99.90;;;;;;5086417;28;20028;-71
2023/09/02 04:14:13;;;;;;;5.75;1.95;;;12.60;99.90;;;;;;5082927;28;20048;-70
2023/09/02 04:16:38;;;;;;;4.28;1.90;;;12.60;99.90;;;;;;5085456;28;21476;-71
2023/09/02 04:19:04;;;;;;;6.38;1.95;;;12.60;99.90;;;;;;5084673;28;20039;-72
2023/09/02 04:21:30;;;;;;;4.38;2.22;;;12.60;99.90;;;;;;5085674;28;20032;-72
2023/09/02 04:23:56;;;;;;;7.47;1.77;;;12.70;99.90;;;;;;5086468;28;20074;-72
2023/09/02 04:26:22;;;;;;;5.47;1.65;;;12.70;99.90;;;;;;5086105;28;20482;-71
2023/09/02 04:28:48;;;;;;;4.45;1.95;;;12.70;99.90;;;;;;5086624;28;20043;-72
2023/09/02 04:31:14;;;;;;;6.38;1.67;;;12.60;99.90;;;;;;5087219;28;20106;-73
2023/09/02 04:33:40;;;;;;;3.65;1.20;;;12.60;99.90;;;;;;5089049;28;20555;-72
2023/09/02 04:36:06;;;;;;;5.70;1.67;;;12.60;99.90;;;;;;5089869;28;20563;-72
2023/09/02 04:38:33;;;;;;;4.32;1.45;;;12.50;99.90;;;;;;5089757;28;20103;-71
2023/09/02 04:41:06;;;;;;;4.40;2.05;;;12.40;99.90;;;;;;5089986;28;20032;-70
2023/09/02 04:43:33;;;;;;;5.28;2.35;;;12.40;99.90;;;;;;5088999;28;20052;-71
2023/09/02 04:46:02;;;;;;;6.15;2.63;;;12.40;99.90;;;;;;5087226;28;20020;-71
2023/09/02 04:48:28;;;;;;;6.07;2.60;;;12.40;99.90;;;;;;5085237;28;20127;-71
2023/09/02 04:50:55;;;;;;;5.07;2.13;;;12.40;99.90;;;;;;5086438;28;20302;-73
2023/09/02 04:53:21;;;;;;;8.60;2.25;;;12.30;99.90;;;;;;5089140;28;20541;-71
2023/09/02 04:55:47;;;;;;;3.05;1.90;;;12.40;99.90;;;;;;5091798;28;20036;-71
2023/09/02 04:58:13;;;;;;;3.03;1.77;;;12.40;99.90;;;;;;5089755;28;20062;-71
2023/09/02 05:00:39;;;;;;;8.43;2.45;;;12.40;99.90;;;;;;5088136;28;20059;-72
2023/09/02 05:03:05;;;;;;;4.40;2.28;;;12.40;99.90;;;;;;5085861;28;20036;-72
2023/09/02 05:05:34;;;;;;;5.50;2.33;;;12.40;99.90;;;;;;5088769;28;20039;-72
2023/09/02 05:07:59;;;;;;;3.38;2.10;;;12.50;99.90;;;;;;5089460;28;20076;-71
2023/09/02 05:10:25;;;;;;;3.53;2.20;;;12.50;99.90;;;;;;5091313;28;20047;-72
2023/09/02 05:12:51;;;;;;;4.00;2.33;;;12.50;99.90;;;;;;5088511;28;20031;-72
2023/09/02 05:15:16;;;;;;;3.80;2.17;;;12.50;99.90;;;;;;5086811;28;20501;-72
2023/09/02 05:17:42;;;;;;;4.78;2.10;;;12.50;99.90;;;;;;5087754;28;20391;-72
2023/09/02 05:20:08;;;;;;;5.22;1.98;;;12.60;99.90;;;;;;5071377;28;20028;-72
2023/09/02 05:22:35;;;;;;;4.72;2.20;;;12.60;99.90;;;;;;5090529;28;20053;-71
2023/09/02 05:25:01;;;;;;;5.18;1.90;;;12.70;99.90;;;;;;5087867;28;20103;-72
2023/09/02 05:27:27;;;;;;;5.20;1.75;;;12.80;99.90;;;;;;5090763;28;20115;-71
2023/09/02 05:29:52;;;;;;;6.07;1.85;;;12.90;99.90;;;;;;5070876;28;20115;-72
2023/09/02 05:32:18;;;;;;;3.92;1.92;;;12.90;99.90;;;;;;5087248;28;20078;-73
2023/09/02 05:34:44;;;;;;;5.18;1.70;;;13.00;99.90;;;;;;5087529;28;20464;-72
2023/09/02 05:37:10;;;;;;;3.50;2.03;;;13.10;99.90;;;;;;5080991;28;20036;-72
2023/09/02 05:39:36;;;;;;;4.50;2.00;;;13.20;99.90;;;;;;5087504;28;20024;-72
2023/09/02 05:42:02;;;;;;;3.78;1.80;;;13.30;99.90;;;;;;5087620;28;20035;-72
2023/09/02 05:44:28;;;;;;;5.13;1.90;;;13.30;99.90;;;;;;5090285;28;20032;-72
2023/09/02 05:46:54;;;;;;;4.82;1.90;;;13.40;99.90;;;;;;5089859;28;20044;-73
2023/09/02 05:49:19;;;;;;;7.22;1.90;;;13.40;99.90;;;;;;5088032;28;20083;-71
2023/09/02 05:51:45;;;;;;;4.05;1.70;;;13.40;99.90;;;;;;5084919;28;20412;-73
2023/09/02 05:54:11;;;;;;;4.07;1.90;;;13.40;99.90;;;;;;5082530;28;20418;-72
2023/09/02 05:56:37;;;;;;;4.55;1.50;;;13.40;99.90;;;;;;5081450;28;20484;-73
2023/09/02 05:59:03;;;;;;;1.77;1.48;;;13.50;99.90;;;;;;5084220;28;20081;-71
2023/09/02 06:01:29;;;;;;;6.78;2.00;;;13.50;99.90;;;;;;5080937;28;20064;-72
2023/09/02 06:03:55;;;;;;;6.03;1.88;;;13.50;99.90;;;;;;5073602;28;20081;-73
2023/09/02 06:06:21;;;;;;;4.72;1.63;;;13.60;99.90;;;;;;5087241;28;20472;-71
2023/09/02 06:08:48;;;;;;;4.65;1.95;;;13.70;99.90;;;;;;5086014;28;20032;-72
2023/09/02 06:11:14;;;;;;;5.90;1.77;;;13.80;99.90;;;;;;5086077;28;20111;-72
2023/09/02 06:13:39;;;;;;;15.25;3.25;;;13.90;99.90;;;;;;5069517;28;20111;-72
2023/09/02 06:16:06;;;;;;;7.80;1.95;;;14.00;99.90;;;;;;5086291;28;20040;-72
2023/09/02 06:18:33;;;;;;;8.18;2.20;;;14.10;99.90;;;;;;5087166;28;20653;-71
2023/09/02 06:20:59;;;;;;;4.97;1.85;;;14.20;99.90;;;;;;5087387;28;20094;-74
2023/09/02 06:23:25;;;;;;;3.25;1.92;;;14.10;99.90;;;;;;5075643;28;20021;-72
2023/09/02 06:25:55;;;;;;;5.22;2.00;;;14.20;99.90;;;;;;5078524;28;20035;-72
2023/09/02 06:28:21;;;;;;;2.97;1.70;;;14.30;99.90;;;;;;5081382;28;20032;-72
2023/09/02 06:30:46;;;;;;;3.05;1.90;;;14.40;99.90;;;;;;5088677;28;20042;-71
2023/09/02 06:33:12;;;;;;;4.90;1.75;;;14.50;99.90;;;;;;5088209;28;20036;-72
2023/09/02 06:35:38;;;;;;;3.80;1.80;;;14.60;99.90;;;;;;5085923;28;20035;-72
2023/09/02 06:38:03;;;;;;;3.97;2.05;;;14.70;99.90;;;;;;5088502;28;20032;-70
2023/09/02 06:40:29;;;;;;;3.97;2.25;;;14.80;99.90;;;;;;5088345;28;20024;-76
2023/09/02 06:42:55;;;;;;;4.90;1.98;;;15.00;99.90;;;;;;5087669;28;20064;-74
2023/09/02 06:45:21;;;;;;;4.63;2.00;;;15.20;99.90;;;;;;5088365;28;20058;-74
2023/09/02 06:47:46;;;;;;;5.55;2.22;;;15.40;99.90;;;;;;5082897;28;20059;-74
2023/09/02 06:50:12;;;;;;;4.55;2.28;;;15.60;99.90;;;;;;5085095;28;20028;-74
2023/09/02 06:52:38;;;;;;;8.35;2.45;;;15.70;99.90;;;;;;5087585;28;20044;-74
2023/09/02 06:55:04;;;;;;;7.28;2.15;;;15.80;99.90;;;;;;5084148;28;20605;-73
2023/09/02 06:57:29;;;;;;;7.78;2.20;;;15.90;99.90;;;;;;5086714;28;20373;-74
2023/09/02 06:59:55;;;;;;;5.30;1.98;;;16.10;99.90;;;;;;5083084;28;20031;-74
2023/09/02 07:02:21;;;;;;;3.40;2.08;;;16.10;99.90;;;;;;5083156;28;20039;-74
2023/09/02 07:04:49;;;;;;;5.15;2.30;;;16.20;99.90;;;;;;5086687;28;20035;-73
2023/09/02 07:07:16;;;;;;;4.43;2.47;;;16.30;99.90;;;;;;5074380;28;20036;-73
2023/09/02 07:09:41;;;;;;;3.97;2.25;;;16.40;99.90;;;;;;5087780;28;20032;-73
2023/09/02 07:12:07;;;;;;;6.57;2.40;;;16.60;99.90;;;;;;5086275;28;20031;-73
2023/09/02 07:14:33;;;;;;;5.97;1.90;;;16.70;99.90;;;;;;5068044;28;20036;-75
2023/09/02 07:16:58;;;;;;;8.77;1.70;;;16.90;99.90;;;;;;5090949;28;20050;-75
2023/09/02 07:19:24;;;;;;;12.30;2.25;;;17.00;99.90;;;;;;5089569;28;20395;-75
2023/09/02 07:21:50;;;;;;;8.32;1.95;;;17.20;99.90;;;;;;5086327;28;20472;-75
2023/09/02 07:24:16;;;;;;;4.10;1.90;;;17.30;99.90;;;;;;5086698;28;20464;-75
2023/09/02 07:26:41;;;;;;;3.65;2.20;;;17.50;99.90;;;;;;5082724;28;20760;-76
2023/09/02 07:29:07;;;;;;;6.35;1.98;;;17.70;99.90;;;;;;5080917;28;20036;-75
2023/09/02 07:31:33;;;;;;;6.47;1.70;;;17.80;99.90;;;;;;5085407;28;20027;-75
2023/09/02 07:33:59;;;;;;;5.03;1.98;;;17.90;99.90;;;;;;5083345;28;20031;-73
2023/09/02 07:36:25;;;;;;;4.00;1.75;;;18.10;99.90;;;;;;5079302;28;20028;-72
2023/09/02 07:38:51;;;;;;;2.90;1.80;;;18.30;99.90;;;;;;5083319;28;20071;-72
2023/09/02 07:41:16;;;;;;;3.60;1.52;;;18.40;99.90;;;;;;5081872;28;20142;-71
2023/09/02 07:43:42;;;;;;;3.97;1.52;;;18.60;99.90;;;;;;5085475;28;20038;-71
2023/09/02 07:46:10;;;;;;;2.38;1.63;;;18.70;99.90;;;;;;5086924;28;20028;-71
2023/09/02 07:48:36;;;;;;;4.53;1.80;;;18.90;99.90;;;;;;5084980;28;20060;-72
2023/09/02 07:51:02;;;;;;;3.83;1.73;;;19.00;99.90;;;;;;5086257;28;20043;-71
2023/09/02 07:53:28;;;;;;;3.97;1.52;;;19.20;99.90;;;;;;5087324;28;20032;-71
2023/09/02 07:55:54;;;;;;;4.70;1.50;;;19.30;99.90;;;;;;5087793;28;20114;-71
2023/09/02 07:58:19;;;;;;;3.53;1.60;;;19.50;99.90;;;;;;5087306;28;20198;-71
2023/09/02 08:00:45;;;;;;;5.22;1.50;;;19.60;99.90;;;;;;5088222;28;20052;-71
2023/09/02 08:03:11;;;;;;;5.22;1.65;;;19.80;99.90;;;;;;5086226;28;20115;-71
2023/09/02 08:05:39;;;;;;;3.17;1.73;;;19.90;99.90;;;;;;5090017;28;20027;-72
2023/09/02 08:08:06;;;;;;;2.05;1.30;;;19.90;99.90;;;;;;5090493;28;20032;-73
2023/09/02 08:10:33;;;;;;;4.95;1.83;;;20.00;99.90;;;;;;5085433;28;20035;-73
2023/09/02 08:12:59;;;;;;;2.78;1.40;;;20.10;99.90;;;;;;5091453;28;20028;-73
2023/09/02 08:15:24;;;;;;;2.72;1.52;;;20.20;99.90;;;;;;5089624;28;20043;-73
2023/09/02 08:17:51;;;;;;;2.97;1.42;;;20.40;99.90;;;;;;5091531;28;20044;-72
2023/09/02 08:20:17;;;;;;;3.53;1.58;;;20.60;99.90;;;;;;5091043;28;20032;-72
2023/09/02 08:22:43;;;;;;;5.05;1.42;;;20.80;99.90;;;;;;5073559;28;20028;-72
2023/09/02 08:25:09;;;;;;;7.07;1.90;;;20.90;99.90;;;;;;5090952;28;20024;-72
2023/09/02 08:27:35;;;;;;;3.08;1.52;;;21.00;99.90;;;;;;5090416;28;20036;-71
2023/09/02 08:30:02;;;;;;;2.28;1.13;;;21.10;99.90;;;;;;5090401;28;20036;-71
2023/09/02 08:32:31;;;;;;;2.20;1.30;;;21.20;99.90;;;;;;5090580;28;20040;-71
2023/09/02 08:34:57;;;;;;;1.90;1.20;;;21.30;99.90;;;;;;5090681;28;20066;-71
2023/09/02 08:37:23;;;;;;;4.07;1.67;;;21.30;99.90;;;;;;5089744;28;20036;-71
2023/09/02 08:39:51;;;;;;;2.38;1.42;;;21.30;99.90;;;;;;5090839;28;20035;-72
2023/09/02 08:42:19;;;;;;;4.95;1.58;;;21.30;99.90;;;;;;5090780;28;20024;-72
2023/09/02 08:44:46;;;;;;;3.55;1.50;;;21.30;99.90;;;;;;5090498;28;20062;-72
2023/09/02 08:47:16;;;;;;;3.15;1.42;;;21.30;99.90;;;;;;5082929;28;20054;-72
2023/09/02 08:49:42;;;;;;;6.32;1.73;;;21.40;99.90;;;;;;5086271;28;20044;-71
2023/09/02 08:52:08;;;;;;;4.30;1.50;;;21.50;99.90;;;;;;5072182;28;20034;-71
2023/09/02 08:54:36;;;;;;;2.80;1.60;;;21.70;99.90;;;;;;5087455;28;20024;-72
2023/09/02 08:57:03;;;;;;;2.90;1.92;;;21.80;99.90;;;;;;5089663;28;20127;-72
2023/09/02 08:59:29;;;;;;;2.90;1.50;;;21.80;99.90;;;;;;5086634;28;20106;-73
2023/09/02 09:01:56;;;;;;;3.67;1.50;;;21.90;99.90;;;;;;5090485;28;20083;-71
2023/09/02 09:04:22;;;;;;;6.40;1.88;;;22.00;99.90;;;;;;5086725;28;20066;-72
2023/09/02 09:06:48;;;;;;;18.10;4.15;;;22.20;99.90;;;;;;5087803;28;20042;-71
2023/09/02 09:09:16;;;;;;;4.45;1.58;;;22.30;99.90;;;;;;5089368;28;20032;-70
2023/09/02 09:11:43;;;;;;;7.53;2.10;;;22.40;99.90;;;;;;5087499;28;20516;-71
2023/09/02 09:14:18;;;;;;;4.63;1.83;;;22.40;99.90;;;;;;5087662;28;20036;-72
2023/09/02 09:16:45;;;;;;;7.72;2.25;;;22.40;99.90;;;;;;5089037;28;20024;-71
2023/09/02 09:19:11;;;;;;;2.97;1.38;;;22.50;99.90;;;;;;5084598;28;20034;-72
2023/09/02 09:21:36;;;;;;;3.70;1.52;;;22.60;99.90;;;;;;5085768;28;20024;-72
2023/09/02 09:24:02;;;;;;;3.40;1.83;;;22.60;99.90;;;;;;5085178;28;20043;-71
2023/09/02 09:26:30;;;;;;;4.03;1.65;;;22.70;99.90;;;;;;5085816;28;20020;-71
2023/09/02 09:28:58;;;;;;;3.08;1.75;;;22.80;99.90;;;;;;5089275;28;20050;-71
2023/09/02 09:31:24;;;;;;;4.32;2.28;;;22.90;99.90;;;;;;5088520;28;20031;-70
2023/09/02 09:33:55;;;;;;;3.50;2.22;;;23.00;99.90;;;;;;5084825;28;20071;-71
2023/09/02 09:36:24;;;;;;;6.47;2.42;;;23.10;99.90;;;;;;5082035;28;20507;-70
2023/09/02 09:38:53;;;;;;;2.97;1.98;;;23.10;99.90;;;;;;5070804;28;20115;-70
2023/09/02 09:41:19;;;;;;;11.13;6.10;;;23.30;99.90;;;;;;5086350;28;20032;-71
2023/09/02 09:44:10;;;;;;;13.07;5.22;;;23.30;99.90;;;;;;5087585;28;20369;-72
2023/09/02 09:46:46;;;;;;;7.22;4.45;;;23.40;99.90;;;;;;5086708;28;20024;-71
2023/09/02 09:49:24;;;;;;;9.60;5.53;;;23.60;99.90;;;;;;5087875;28;20115;-71
2023/09/02 09:52:10;;;;;;;7.28;4.45;;;23.50;99.90;;;;;;5072875;28;20489;-71
2023/09/02 09:54:42;;;;;;;8.63;4.70;;;23.50;99.90;;;;;;5075317;28;20047;-72
2023/09/02 09:57:29;;;;;;;15.48;4.35;;;23.70;99.90;;;;;;5086742;28;20392;-72
2023/09/02 09:59:54;;;;;;;5.68;3.15;;;24.00;99.90;;;;;;5085624;28;20028;-72
2023/09/02 10:02:21;;;;;;;7.00;3.60;;;24.30;99.90;;;;;;5088042;28;20089;-72
2023/09/02 10:04:57;;;;;;;14.07;3.28;;;24.50;99.90;;;;;;5083495;28;20045;-70
2023/09/02 10:07:26;;;;;;;5.50;3.05;;;24.50;99.90;;;;;;5087877;28;20432;-71
2023/09/02 10:09:56;;;;;;;5.60;1.35;;;24.60;99.90;;;;;;5087592;28;20456;-70
2023/09/02 10:12:22;;;;;;;4.75;2.05;;;24.50;99.90;;;;;;5086049;28;20032;-71
2023/09/02 10:14:50;;;;;;;5.25;1.75;;;24.30;99.90;;;;;;5084108;28;20024;-71
2023/09/02 10:17:16;;;;;;;5.80;2.22;;;24.50;99.90;;;;;;5084378;28;20032;-71
2023/09/02 10:19:43;;;;;;;3.85;2.35;;;24.70;99.90;;;;;;5083253;28;20544;-71
2023/09/02 10:22:14;;;;;;;3.00;1.77;;;24.80;99.90;;;;;;5082665;28;20035;-70
2023/09/02 10:24:52;;;;;;;4.07;2.03;;;25.00;99.90;;;;;;5080578;28;20042;-70
2023/09/02 10:27:23;;;;;;;3.22;1.80;;;25.10;99.90;;;;;;5081354;28;20032;-71
2023/09/02 10:30:00;;;;;;;5.13;1.85;;;25.20;99.90;;;;;;5089357;28;20032;-71
2023/09/02 10:32:40;;;;;;;4.80;1.35;;;25.10;99.90;;;;;;5086440;28;20548;-70
2023/09/02 10:35:18;;;;;;;4.13;2.00;;;24.90;99.90;;;;;;5088238;28;20373;-71
2023/09/02 10:37:51;;;;;;;3.15;1.55;;;25.00;99.90;;;;;;5086604;28;20047;-71
2023/09/02 10:40:24;;;;;;;2.28;1.58;;;25.10;99.90;;;;;;5089324;28;20032;-71
2023/09/02 10:42:52;;;;;;;2.83;1.40;;;25.20;99.90;;;;;;5094814;28;20459;-71
2023/09/02 10:45:18;;;;;;;6.30;1.73;;;25.20;99.90;;;;;;5088222;28;20476;-71
2023/09/02 10:47:45;;;;;;;2.88;1.40;;;25.50;99.90;;;;;;5086736;28;20066;-71
2023/09/02 10:50:13;;;;;;;7.32;1.42;;;25.40;99.90;;;;;;5070355;28;20116;-72
2023/09/02 10:52:39;;;;;;;3.80;1.50;;;25.40;99.90;;;;;;5087115;28;20122;-70
2023/09/02 10:55:08;;;;;;;4.63;1.30;;;25.50;99.90;;;;;;5088740;28;20040;-71
2023/09/02 10:57:49;;;;;;;5.18;1.70;;;25.30;99.90;;;;;;5086328;28;20252;-71
2023/09/02 11:00:22;;;;;;;4.57;1.40;;;25.10;99.90;;;;;;5096459;28;20090;-71
2023/09/02 11:02:53;;;;;;;2.72;1.50;;;25.00;99.90;;;;;;5085045;28;20036;-70
2023/09/02 11:05:20;;;;;;;2.30;1.33;;;25.30;99.90;;;;;;5066273;28;20051;-72
2023/09/02 11:07:46;;;;;;;3.65;1.33;;;25.70;99.90;;;;;;5088608;28;20392;-71
2023/09/02 11:10:12;;;;;;;2.85;1.60;;;26.30;99.90;;;;;;5070459;28;20440;-70
2023/09/02 11:12:59;;;;;;;3.97;1.45;;;26.60;99.90;;;;;;5083574;28;20028;-71
2023/09/02 11:15:25;;;;;;;7.53;1.40;;;26.60;99.90;;;;;;5089447;28;20470;-71
2023/09/02 11:17:52;;;;;;;2.10;1.50;;;26.10;99.90;;;;;;5086741;28;20162;-71
2023/09/02 11:20:27;;;;;;;3.72;1.80;;;26.00;99.90;;;;;;5088838;28;20055;-71
2023/09/02 11:23:01;;;;;;;6.97;2.35;;;26.00;99.90;;;;;;5084384;28;20047;-71
2023/09/02 11:25:31;;;;;;;3.92;2.10;;;26.30;99.90;;;;;;5087592;28;20032;-71
2023/09/02 11:27:58;;;;;;;3.90;2.30;;;26.60;99.90;;;;;;5086906;28;20035;-71
2023/09/02 11:30:25;;;;;;;5.45;2.30;;;26.80;99.90;;;;;;5080597;28;20043;-70
2023/09/02 11:32:51;;;;;;;5.38;2.20;;;26.60;99.90;;;;;;5082772;28;20032;-72
2023/09/02 11:35:43;;;;;;;7.07;1.92;;;26.60;99.90;;;;;;5086207;28;20119;-71
2023/09/02 11:38:21;;;;;;;4.00;2.22;;;26.30;99.90;;;;;;5080769;28;20067;-72
2023/09/02 11:40:47;;;;;;;4.63;1.80;;;26.30;99.90;;;;;;5080277;28;20090;-71
2023/09/02 11:43:19;;;;;;;3.67;1.80;;;26.40;99.90;;;;;;5082453;28;20036;-71
2023/09/02 11:45:45;;;;;;;3.28;1.73;;;26.50;99.90;;;;;;5081715;28;20024;-71
2023/09/02 11:48:11;;;;;;;6.57;2.65;;;26.50;99.90;;;;;;5078882;28;20442;-71
2023/09/02 11:50:38;;;;;;;3.78;2.00;;;26.30;99.90;;;;;;5084241;28;20028;-71
2023/09/02 11:53:05;;;;;;;11.25;4.28;;;26.40;99.90;;;;;;5080163;28;20044;-71
2023/09/02 11:55:31;;;;;;;5.00;1.48;;;26.80;99.90;;;;;;5066000;28;20036;-71
2023/09/02 11:57:56;;;;;;;3.22;1.63;;;27.10;99.90;;;;;;5077916;28;20032;-70
2023/09/02 12:00:24;;;;;;;2.05;1.20;;;27.00;99.90;;;;;;5085480;28;20028;-71
2023/09/02 12:02:51;;;;;;;3.85;1.55;;;27.00;99.90;;;;;;5079736;28;20032;-71
2023/09/02 12:05:16;;;;;;;1.65;1.10;;;27.00;99.90;;;;;;5085491;28;20028;-71
2023/09/02 12:07:46;;;;;;;3.53;1.45;;;27.00;99.90;;;;;;5080706;28;20035;-71
2023/09/02 12:10:16;;;;;;;2.67;1.40;;;27.40;99.90;;;;;;5083142;28;20125;-71
2023/09/02 12:12:47;;;;;;;3.03;1.30;;;27.30;99.90;;;;;;5073581;28;20039;-71
2023/09/02 12:15:18;;;;;;;3.67;1.48;;;27.00;99.90;;;;;;5078185;28;20047;-71
2023/09/02 12:17:45;;;;;;;1.88;1.30;;;26.90;99.90;;;;;;5086395;28;20059;-71
2023/09/02 12:20:13;;;;;;;2.80;1.35;;;27.20;99.90;;;;;;5086944;28;20063;-71
2023/09/02 12:22:40;;;;;;;6.18;1.58;;;27.20;99.90;;;;;;5064013;28;20020;-71
2023/09/02 12:25:13;;;;;;;3.20;1.40;;;27.20;99.90;;;;;;5081815;28;20039;-71
2023/09/02 12:27:39;;;;;;;2.33;1.40;;;27.30;99.90;;;;;;5074293;28;20161;-71
2023/09/02 12:30:06;;;;;;;1.92;1.13;;;27.60;99.70;;;;;;5086453;28;20032;-71
2023/09/02 12:32:32;;;;;;;39.40;10.68;;;27.70;99.90;;;;;;5079747;28;20143;-71
2023/09/02 12:34:58;;;;;;;2.35;1.60;;;27.70;99.90;;;;;;5085030;28;20150;-71
2023/09/02 12:37:24;;;;;;;5.05;1.98;;;27.40;99.90;;;;;;5080678;28;20403;-70
2023/09/02 12:39:50;;;;;;;3.30;1.60;;;27.10;99.90;;;;;;5094202;28;20058;-70
2023/09/02 12:42:30;;;;;;;3.22;1.80;;;26.80;99.90;;;;;;5079005;28;20063;-70
2023/09/02 12:45:00;;;;;;;7.22;1.77;;;26.60;99.90;;;;;;5080858;28;20381;-71
2023/09/02 12:47:27;;;;;;;6.45;2.95;;;26.60;99.90;;;;;;5075557;28;20044;-71